createdAt,value
2022-12-12T00:01:04.297Z,9.13
2022-12-12T00:03:32.282Z,11.70
2022-12-12T00:06:03.569Z,8.98
2022-12-12T00:08:31.490Z,8.82
2022-12-12T00:10:58.962Z,6.78
2022-12-12T00:13:27.129Z,8.65
2022-12-12T00:15:55.873Z,7.30
2022-12-12T00:18:23.657Z,6.22
2022-12-12T00:20:55.907Z,6.28
2022-12-12T00:23:25.832Z,7.55
2022-12-12T00:26:03.335Z,8.00
2022-12-12T00:28:31.322Z,5.57
2022-12-12T00:31:01.050Z,6.80
2022-12-12T00:33:28.632Z,7.13
2022-12-12T00:35:57.161Z,7.88
2022-12-12T00:38:24.545Z,6.40
2022-12-12T00:41:00.056Z,8.65
2022-12-12T00:43:29.007Z,6.47
2022-12-12T00:46:02.001Z,6.13
2022-12-12T00:48:30.494Z,6.28
2022-12-12T00:50:58.426Z,6.32
2022-12-12T00:53:26.506Z,5.13
2022-12-12T00:55:58.642Z,6.28
2022-12-12T00:58:26.946Z,6.65
2022-12-12T01:00:57.280Z,5.40
2022-12-12T01:03:25.528Z,5.78
2022-12-12T01:05:53.948Z,5.85
2022-12-12T01:08:21.793Z,6.25
2022-12-12T01:10:50.078Z,6.35
2022-12-12T01:13:17.392Z,5.82
2022-12-12T01:15:49.756Z,5.00
2022-12-12T01:18:17.648Z,5.70
2022-12-12T01:20:46.667Z,6.40
2022-12-12T01:23:14.660Z,6.47
2022-12-12T01:25:42.511Z,6.65
2022-12-12T01:28:10.390Z,7.07
2022-12-12T01:30:42.370Z,7.05
2022-12-12T01:33:11.332Z,6.93
2022-12-12T01:35:39.556Z,8.15
2022-12-12T01:38:07.098Z,5.82
2022-12-12T01:40:35.257Z,5.32
2022-12-12T01:43:02.741Z,5.72
2022-12-12T01:46:03.697Z,6.50
2022-12-12T01:48:50.473Z,5.13
2022-12-12T01:51:22.411Z,5.45
2022-12-12T01:53:53.269Z,7.10
2022-12-12T01:56:21.422Z,7.80
2022-12-12T01:58:51.543Z,8.32
2022-12-12T02:01:25.420Z,8.77
2022-12-12T02:03:54.074Z,5.82
2022-12-12T02:06:26.479Z,6.57
2022-12-12T02:08:55.903Z,6.70
2022-12-12T02:11:23.224Z,8.35
2022-12-12T02:13:53.117Z,7.50
2022-12-12T02:16:44.880Z,7.75
2022-12-12T02:19:41.313Z,6.80
2022-12-12T02:22:47.815Z,5.75
2022-12-12T02:25:36.529Z,6.53
2022-12-12T02:28:51.838Z,6.10
2022-12-12T02:31:23.571Z,7.47
2022-12-12T02:33:57.574Z,7.28
2022-12-12T02:36:36.888Z,6.20
2022-12-12T02:39:18.713Z,6.10
2022-12-12T02:42:18.235Z,5.97
2022-12-12T02:45:10.678Z,8.25
2022-12-12T02:47:52.758Z,7.80
2022-12-12T02:50:27.714Z,7.25
2022-12-12T02:52:55.069Z,6.32
2022-12-12T02:55:22.434Z,8.77
2022-12-12T02:57:52.024Z,6.57
2022-12-12T03:00:21.865Z,7.38
2022-12-12T03:03:41.902Z,7.53
2022-12-12T03:06:40.995Z,6.22
2022-12-12T03:09:17.240Z,9.07
2022-12-12T03:12:08.975Z,6.03
2022-12-12T03:14:51.306Z,5.45
2022-12-12T03:17:45.142Z,5.45
2022-12-12T03:20:23.362Z,5.90
2022-12-12T03:23:09.285Z,7.10
2022-12-12T03:25:49.948Z,6.93
2022-12-12T03:28:40.053Z,5.63
2022-12-12T03:31:12.274Z,6.15
2022-12-12T03:33:49.028Z,6.80
2022-12-12T03:36:23.958Z,6.35
2022-12-12T03:39:00.521Z,6.20
2022-12-12T03:41:43.686Z,6.53
2022-12-12T03:44:22.584Z,6.28
2022-12-12T03:47:06.613Z,18.95
2022-12-12T03:49:42.027Z,8.68
2022-12-12T03:52:23.175Z,7.18
2022-12-12T03:55:15.313Z,8.60
2022-12-12T03:57:51.439Z,5.93
2022-12-12T04:00:19.462Z,5.28
2022-12-12T04:02:53.195Z,4.95
2022-12-12T04:05:39.421Z,5.20
2022-12-12T04:08:14.217Z,5.45
2022-12-12T04:11:07.036Z,7.22
2022-12-12T04:14:06.696Z,9.65
2022-12-12T04:16:40.450Z,6.95
2022-12-12T04:19:40.415Z,7.90
2022-12-12T04:22:30.997Z,7.43
2022-12-12T04:25:06.025Z,6.30
2022-12-12T04:27:44.644Z,6.13
2022-12-12T04:30:15.429Z,6.30
2022-12-12T04:32:51.193Z,6.78
2022-12-12T04:35:35.290Z,7.07
2022-12-12T04:38:10.678Z,5.68
2022-12-12T04:40:51.854Z,6.38
2022-12-12T04:43:36.092Z,5.70
2022-12-12T04:46:16.993Z,6.20
2022-12-12T04:49:03.473Z,6.95
2022-12-12T04:51:42.903Z,6.72
2022-12-12T04:54:22.519Z,7.13
2022-12-12T04:56:54.797Z,7.55
2022-12-12T04:59:23.916Z,8.60
2022-12-12T05:02:20.605Z,7.40
2022-12-12T05:04:51.762Z,6.70
2022-12-12T05:07:40.059Z,6.15
2022-12-12T05:10:13.661Z,6.28
2022-12-12T05:12:44.408Z,4.57
2022-12-12T05:17:46.922Z,10.32
2022-12-12T05:20:16.213Z,14.30
2022-12-12T05:22:43.459Z,6.88
2022-12-12T05:25:11.360Z,9.70
2022-12-12T05:27:39.329Z,6.03
2022-12-12T05:30:07.239Z,8.02
2022-12-12T05:32:34.754Z,6.93
2022-12-12T05:35:02.175Z,6.43
2022-12-12T05:37:29.393Z,13.65
2022-12-12T05:39:57.314Z,14.90
2022-12-12T05:42:24.737Z,14.77
2022-12-12T05:44:52.436Z,6.78
2022-12-12T05:47:19.774Z,6.43
2022-12-12T05:49:47.604Z,6.00
2022-12-12T05:52:15.414Z,6.85
2022-12-12T05:54:43.127Z,13.80
2022-12-12T05:57:11.243Z,14.45
2022-12-12T05:59:38.610Z,8.32
2022-12-12T06:02:06.186Z,6.65
2022-12-12T06:04:33.528Z,7.03
2022-12-12T06:07:01.301Z,7.55
2022-12-12T06:09:29.198Z,10.70
2022-12-12T06:11:57.451Z,14.18
2022-12-12T06:14:27.294Z,9.18
2022-12-12T06:16:55.178Z,6.80
2022-12-12T06:19:24.215Z,8.15
2022-12-12T06:21:51.780Z,7.22
2022-12-12T06:24:20.339Z,6.50
2022-12-12T06:26:47.562Z,5.53
2022-12-12T06:29:27.485Z,9.57
2022-12-12T06:31:55.278Z,7.30
2022-12-12T06:34:22.726Z,8.00
2022-12-12T06:36:50.737Z,10.38
2022-12-12T06:39:18.156Z,8.77
2022-12-12T06:41:45.995Z,9.52
2022-12-12T06:44:13.862Z,8.95
2022-12-12T06:46:41.255Z,9.02
2022-12-12T06:49:10.375Z,10.38
2022-12-12T06:51:44.363Z,9.60
2022-12-12T06:54:15.085Z,9.20
2022-12-12T06:56:48.026Z,8.50
2022-12-12T06:59:17.225Z,8.18
2022-12-12T07:01:44.902Z,8.07
2022-12-12T07:04:16.789Z,10.40
2022-12-12T07:06:50.821Z,13.43
2022-12-12T07:09:19.343Z,9.90
2022-12-12T07:11:46.977Z,28.50
2022-12-12T07:14:15.484Z,13.88
2022-12-12T07:16:42.852Z,10.05
2022-12-12T07:19:11.384Z,10.25
2022-12-12T07:21:39.978Z,12.82
2022-12-12T07:24:09.270Z,13.55
2022-12-12T07:26:38.057Z,12.48
2022-12-12T07:29:05.540Z,19.30
2022-12-12T07:31:34.212Z,12.20
2022-12-12T07:34:04.789Z,13.63
2022-12-12T07:36:32.238Z,13.30
2022-12-12T07:38:59.543Z,10.02
2022-12-12T07:41:27.580Z,8.43
2022-12-12T07:43:55.166Z,8.60
2022-12-12T07:46:26.002Z,8.68
2022-12-12T07:48:54.367Z,7.70
2022-12-12T07:51:22.828Z,8.07
2022-12-12T07:53:51.307Z,9.05
2022-12-12T07:56:20.832Z,10.82
2022-12-12T07:58:48.866Z,10.13
2022-12-12T08:01:23.007Z,9.88
2022-12-12T08:03:51.408Z,8.07
2022-12-12T08:06:21.147Z,8.93
2022-12-12T08:08:49.948Z,8.95
2022-12-12T08:11:21.485Z,10.35
2022-12-12T08:13:49.509Z,9.80
2022-12-12T08:16:21.803Z,9.25
2022-12-12T08:18:49.918Z,8.93
2022-12-12T08:21:25.200Z,9.05
2022-12-12T08:23:59.531Z,10.13
2022-12-12T08:26:27.777Z,9.70
2022-12-12T08:28:56.139Z,12.02
2022-12-12T08:31:24.528Z,15.80
2022-12-12T08:33:52.382Z,13.35
2022-12-12T08:36:29.862Z,11.85
2022-12-12T08:39:20.683Z,9.57
2022-12-12T08:44:18.802Z,8.13
2022-12-12T08:46:46.513Z,9.15
2022-12-12T08:49:13.912Z,7.97
2022-12-12T08:51:42.317Z,8.73
2022-12-12T08:54:12.253Z,7.85
2022-12-12T08:56:40.602Z,9.55
2022-12-12T08:59:09.192Z,8.20
2022-12-12T09:01:37.138Z,9.52
2022-12-12T09:04:05.331Z,12.07
2022-12-12T09:06:32.829Z,11.75
2022-12-12T09:09:00.260Z,10.95
2022-12-12T09:11:30.236Z,11.45
2022-12-12T09:13:57.985Z,12.90
2022-12-12T09:16:26.966Z,11.55
2022-12-12T09:18:55.885Z,12.82
2022-12-12T09:21:23.608Z,14.43
2022-12-12T09:23:51.024Z,12.32
2022-12-12T09:26:18.393Z,22.92
2022-12-12T09:28:45.698Z,28.77
2022-12-12T09:31:14.320Z,17.88
2022-12-12T09:33:43.412Z,23.53
2022-12-12T09:36:15.198Z,19.42
2022-12-12T09:38:44.305Z,20.58
2022-12-12T09:41:25.196Z,23.50
2022-12-12T09:44:09.812Z,22.20
2022-12-12T09:46:49.800Z,22.13
2022-12-12T09:49:30.549Z,20.05
2022-12-12T09:52:00.474Z,14.88
2022-12-12T09:54:28.956Z,15.57
2022-12-12T09:57:02.797Z,17.45
2022-12-12T09:59:42.846Z,15.63
2022-12-12T10:02:45.583Z,18.08
2022-12-12T10:05:19.773Z,15.52
2022-12-12T10:08:09.104Z,15.30
2022-12-12T10:10:47.724Z,16.05
2022-12-12T10:13:29.551Z,18.70
2022-12-12T10:16:08.125Z,16.85
2022-12-12T10:18:48.999Z,15.68
2022-12-12T10:21:31.272Z,13.65
2022-12-12T10:24:12.241Z,15.20
2022-12-12T10:26:43.060Z,24.63
2022-12-12T10:29:21.761Z,12.05
2022-12-12T10:31:55.742Z,13.13
2022-12-12T10:34:50.712Z,16.08
2022-12-12T10:37:46.443Z,14.55
2022-12-12T10:40:30.336Z,14.52
2022-12-12T10:42:58.098Z,20.05
2022-12-12T10:45:49.848Z,57.53
2022-12-12T10:48:18.662Z,101.90
2022-12-12T10:50:54.263Z,53.15
2022-12-12T10:53:22.103Z,148.88
2022-12-12T10:55:56.891Z,145.80
2022-12-12T10:58:35.536Z,14.43
2022-12-12T11:01:18.304Z,21.27
2022-12-12T11:03:49.053Z,92.65
2022-12-12T11:06:30.506Z,19.67
2022-12-12T11:09:22.797Z,16.17
2022-12-12T11:12:12.391Z,18.55
2022-12-12T11:14:45.847Z,59.40
2022-12-12T11:17:24.473Z,148.07
2022-12-12T11:19:56.604Z,140.10
2022-12-12T11:24:53.200Z,177.27
2022-12-12T11:27:29.391Z,101.20
2022-12-12T11:30:07.781Z,42.72
2022-12-12T11:32:44.863Z,15.18
2022-12-12T11:35:35.889Z,19.88
2022-12-12T11:38:43.812Z,31.05
2022-12-12T11:41:12.435Z,18.70
2022-12-12T11:43:49.801Z,19.50
2022-12-12T11:46:29.314Z,20.02
2022-12-12T11:48:59.756Z,48.17
2022-12-12T11:51:36.868Z,32.10
2022-12-12T11:54:12.933Z,33.17
2022-12-12T11:56:53.183Z,9.23
2022-12-12T11:59:31.612Z,19.80
2022-12-12T12:02:23.864Z,11.57
2022-12-12T12:05:14.451Z,10.30
2022-12-12T12:08:07.108Z,21.85
2022-12-12T12:10:49.937Z,17.48
2022-12-12T12:13:45.945Z,20.42
2022-12-12T12:16:50.382Z,50.83
2022-12-12T12:19:43.004Z,16.42
2022-12-12T12:22:43.572Z,10.75
2022-12-12T12:25:47.515Z,10.25
2022-12-12T12:29:01.411Z,11.68
2022-12-12T12:32:15.957Z,7.88
2022-12-12T12:35:01.534Z,14.95
2022-12-12T12:38:09.757Z,9.52
2022-12-12T12:40:46.536Z,14.80
2022-12-12T12:43:34.145Z,16.45
2022-12-12T12:46:24.307Z,15.35
2022-12-12T12:49:04.044Z,17.15
2022-12-12T12:51:47.042Z,14.43
2022-12-12T12:54:26.130Z,33.92
2022-12-12T12:57:05.717Z,27.98
2022-12-12T12:59:38.877Z,22.38
2022-12-12T13:02:27.045Z,18.15
2022-12-12T13:05:19.146Z,10.05
2022-12-12T13:07:56.885Z,6.15
2022-12-12T13:10:28.257Z,7.03
2022-12-12T13:13:06.583Z,5.68
2022-12-12T13:15:52.255Z,5.05
2022-12-12T13:18:20.163Z,6.43
2022-12-12T13:21:08.773Z,5.88
2022-12-12T13:23:54.893Z,6.28
2022-12-12T13:26:32.580Z,7.07
2022-12-12T13:29:02.771Z,5.45
2022-12-12T13:32:01.300Z,5.43
2022-12-12T13:34:31.535Z,6.28
2022-12-12T13:36:59.774Z,7.82
2022-12-12T13:39:34.549Z,9.10
2022-12-12T13:42:10.000Z,31.17
2022-12-12T13:44:49.389Z,24.95
2022-12-12T13:47:22.813Z,8.30
2022-12-12T13:50:02.308Z,8.55
2022-12-12T13:52:44.807Z,6.30
2022-12-12T13:55:12.211Z,6.57
2022-12-12T13:58:02.948Z,6.03
2022-12-12T14:00:46.945Z,5.60
2022-12-12T14:03:14.961Z,6.72
2022-12-12T14:05:53.634Z,6.47
2022-12-12T14:08:26.024Z,26.33
2022-12-12T14:11:00.244Z,42.45
2022-12-12T14:13:31.205Z,10.73
2022-12-12T14:16:05.368Z,5.75
2022-12-12T14:19:07.203Z,7.43
2022-12-12T14:21:45.594Z,5.63
2022-12-12T14:24:35.357Z,4.90
2022-12-12T14:27:07.684Z,5.00
2022-12-12T14:29:40.058Z,6.25
2022-12-12T14:32:07.463Z,36.00
2022-12-12T14:34:42.808Z,118.13
2022-12-12T14:37:31.654Z,61.65
2022-12-12T14:40:11.143Z,36.20
2022-12-12T14:43:20.522Z,38.72
2022-12-12T14:45:59.293Z,45.08
2022-12-12T14:48:32.753Z,32.40
2022-12-12T14:51:09.788Z,24.38
2022-12-12T14:53:37.119Z,17.20
2022-12-12T14:56:21.116Z,8.35
2022-12-12T14:59:16.603Z,8.95
2022-12-12T15:01:48.398Z,5.80
2022-12-12T15:04:20.073Z,4.65
2022-12-12T15:06:51.800Z,3.40
2022-12-12T15:09:26.087Z,4.15
2022-12-12T15:12:10.733Z,4.70
2022-12-12T15:14:40.266Z,14.77
2022-12-12T15:17:19.374Z,7.63
2022-12-12T15:19:52.441Z,8.25
2022-12-12T15:22:26.988Z,8.95
2022-12-12T15:24:57.340Z,8.57
2022-12-12T15:27:25.412Z,8.80
2022-12-12T15:29:52.990Z,8.18
2022-12-12T15:32:23.127Z,5.10
2022-12-12T15:35:26.690Z,6.25
2022-12-12T15:38:10.810Z,6.45
2022-12-12T15:40:39.837Z,3.20
2022-12-12T15:43:15.559Z,3.85
2022-12-12T15:45:52.250Z,3.90
2022-12-12T15:48:22.282Z,4.03
2022-12-12T15:51:04.562Z,5.72
2022-12-12T15:53:52.269Z,13.23
2022-12-12T15:56:20.553Z,5.50
2022-12-12T15:58:53.146Z,4.68
2022-12-12T16:01:28.208Z,3.85
2022-12-12T16:04:01.682Z,3.88
2022-12-12T16:06:44.035Z,4.63
2022-12-12T16:09:11.407Z,4.45
2022-12-12T16:11:47.507Z,3.75
2022-12-12T16:14:32.489Z,3.28
2022-12-12T16:17:45.959Z,3.97
2022-12-12T16:20:47.146Z,5.88
2022-12-12T16:23:40.340Z,3.88
2022-12-12T16:26:11.112Z,3.00
2022-12-12T16:31:16.601Z,3.45
2022-12-12T16:33:44.659Z,4.22
2022-12-12T16:36:14.777Z,4.40
2022-12-12T16:38:43.772Z,3.92
2022-12-12T16:41:17.630Z,5.20
2022-12-12T16:43:46.357Z,5.07
2022-12-12T16:46:24.993Z,4.55
2022-12-12T16:48:54.440Z,4.25
2022-12-12T16:51:28.599Z,4.18
2022-12-12T16:53:58.036Z,3.80
2022-12-12T16:56:27.717Z,4.00
2022-12-12T16:58:56.398Z,3.92
2022-12-12T17:01:24.053Z,4.70
2022-12-12T17:03:51.570Z,4.95
2022-12-12T17:06:19.810Z,5.57
2022-12-12T17:08:47.596Z,8.18
2022-12-12T17:11:15.663Z,4.78
2022-12-12T17:13:48.379Z,4.78
2022-12-12T17:16:21.422Z,4.82
2022-12-12T17:18:53.083Z,4.55
2022-12-12T17:21:20.527Z,5.63
2022-12-12T17:23:47.991Z,4.90
2022-12-12T17:26:15.504Z,5.25
2022-12-12T17:28:42.870Z,5.63
2022-12-12T17:31:11.071Z,7.18
2022-12-12T17:33:46.290Z,11.18
2022-12-12T17:36:18.918Z,13.88
2022-12-12T17:38:48.930Z,14.45
2022-12-12T17:41:16.117Z,15.32
2022-12-12T17:43:44.284Z,14.90
2022-12-12T17:46:16.826Z,15.05
2022-12-12T17:48:47.473Z,13.45
2022-12-12T17:51:20.258Z,14.57
2022-12-12T17:53:47.852Z,21.63
2022-12-12T17:56:17.772Z,18.42
2022-12-12T17:58:46.601Z,13.30
2022-12-12T18:01:16.913Z,13.63
2022-12-12T18:03:45.828Z,14.50
2022-12-12T18:06:14.923Z,16.27
2022-12-12T18:08:45.309Z,19.98
2022-12-12T18:11:16.212Z,17.98
2022-12-12T18:13:51.146Z,13.60
2022-12-12T18:16:18.849Z,10.23
2022-12-12T18:18:47.466Z,9.07
2022-12-12T18:24:14.514Z,10.00
2022-12-12T18:26:42.658Z,8.82
2022-12-12T18:29:13.136Z,11.50
2022-12-12T18:31:44.563Z,11.32
2022-12-12T18:34:12.081Z,11.13
2022-12-12T18:36:39.898Z,10.80
2022-12-12T18:39:07.547Z,10.45
2022-12-12T18:41:36.997Z,9.05
2022-12-12T18:44:07.660Z,6.75
2022-12-12T18:49:16.011Z,6.63
2022-12-12T18:51:46.021Z,8.77
2022-12-12T18:54:15.700Z,11.52
2022-12-12T18:56:44.668Z,14.73
2022-12-12T18:59:12.198Z,15.00
2022-12-12T19:01:40.970Z,27.67
2022-12-12T19:04:12.517Z,9.48
2022-12-12T19:06:42.676Z,18.73
2022-12-12T19:09:16.979Z,14.25
2022-12-12T19:11:45.881Z,13.20
2022-12-12T19:14:16.193Z,8.52
2022-12-12T19:16:44.370Z,7.40
2022-12-12T19:19:13.536Z,10.65
2022-12-12T19:21:42.458Z,9.52
2022-12-12T19:24:12.647Z,11.88
2022-12-12T19:26:43.922Z,12.82
2022-12-12T19:29:14.916Z,7.53
2022-12-12T19:31:43.114Z,14.93
2022-12-12T19:34:13.208Z,15.68
2022-12-12T19:36:46.082Z,13.75
2022-12-12T19:39:13.744Z,11.52
2022-12-12T19:41:42.609Z,11.10
2022-12-12T19:44:13.148Z,11.95
2022-12-12T19:46:43.347Z,12.15
2022-12-12T19:49:13.775Z,10.80
2022-12-12T19:51:44.825Z,14.70
2022-12-12T19:54:17.831Z,14.63
2022-12-12T19:56:45.914Z,14.80
2022-12-12T19:59:16.067Z,17.52
2022-12-12T20:01:44.864Z,21.33
2022-12-12T20:04:20.758Z,17.13
2022-12-12T20:06:49.962Z,14.10
2022-12-12T20:09:23.156Z,13.27
2022-12-12T20:11:51.101Z,13.15
2022-12-12T20:14:22.251Z,11.60
2022-12-12T20:16:51.088Z,9.50
2022-12-12T20:19:23.306Z,7.78
2022-12-12T20:22:03.037Z,10.55
2022-12-12T20:24:32.498Z,8.90
2022-12-12T20:27:03.723Z,11.00
2022-12-12T20:32:00.239Z,12.55
2022-12-12T20:34:28.401Z,12.40
2022-12-12T20:36:55.961Z,11.82
2022-12-12T20:39:26.174Z,10.70
2022-12-12T20:41:55.030Z,13.18
2022-12-12T20:44:30.392Z,13.00
2022-12-12T20:47:00.208Z,12.20
2022-12-12T20:49:29.585Z,12.23
2022-12-12T20:51:58.843Z,13.43
2022-12-12T20:54:28.891Z,12.82
2022-12-12T20:56:57.810Z,13.30
2022-12-12T20:59:27.021Z,11.07
2022-12-12T21:01:54.562Z,10.35
2022-12-12T21:04:24.277Z,10.98
2022-12-12T21:06:52.178Z,12.02
2022-12-12T21:09:25.017Z,12.73
2022-12-12T21:11:55.405Z,13.07
2022-12-12T21:14:24.994Z,15.13
2022-12-12T21:16:52.751Z,13.10
2022-12-12T21:19:21.198Z,16.33
2022-12-12T21:21:48.487Z,20.67
2022-12-12T21:24:17.603Z,22.42
2022-12-12T21:26:48.209Z,24.90
2022-12-12T21:29:16.294Z,29.25
2022-12-12T21:31:50.839Z,19.33
2022-12-12T21:34:23.345Z,12.48
2022-12-12T21:36:56.333Z,12.63
2022-12-12T21:39:27.119Z,13.25
2022-12-12T21:44:22.001Z,16.50
2022-12-12T21:46:50.334Z,17.67
2022-12-12T21:49:27.021Z,15.55
2022-12-12T21:52:12.036Z,13.00
2022-12-12T21:54:39.596Z,12.35
2022-12-12T21:57:09.311Z,13.23
2022-12-12T21:59:40.345Z,16.08
2022-12-12T22:02:07.986Z,19.08
2022-12-12T22:04:35.521Z,15.38
2022-12-12T22:07:05.098Z,17.45
2022-12-12T22:09:34.047Z,18.77
2022-12-12T22:12:04.043Z,21.40
2022-12-12T22:14:34.074Z,20.98
2022-12-12T22:17:05.279Z,19.90
2022-12-12T22:19:32.758Z,16.50
2022-12-12T22:22:00.334Z,15.65
2022-12-12T22:24:28.810Z,14.55
2022-12-12T22:26:56.157Z,16.00
2022-12-12T22:29:23.480Z,16.05
2022-12-12T22:31:52.634Z,23.55
2022-12-12T22:34:23.721Z,20.98
2022-12-12T22:36:53.221Z,17.20
2022-12-12T22:39:26.886Z,15.65
2022-12-12T22:41:55.563Z,15.52
2022-12-12T22:44:25.379Z,16.65
2022-12-12T22:46:54.760Z,16.03
2022-12-12T22:49:26.073Z,14.15
2022-12-12T22:51:57.683Z,14.50
2022-12-12T22:54:25.909Z,15.57
2022-12-12T22:56:53.421Z,18.05
2022-12-12T22:59:20.874Z,16.40
2022-12-12T23:01:48.310Z,19.00
2022-12-12T23:04:16.940Z,23.95
2022-12-12T23:06:44.419Z,18.95
2022-12-12T23:09:18.219Z,17.67
2022-12-12T23:11:46.311Z,18.00
2022-12-12T23:14:17.625Z,20.15
2022-12-12T23:16:48.077Z,16.90
2022-12-12T23:19:19.035Z,15.05
2022-12-12T23:21:47.699Z,15.57
2022-12-12T23:24:17.184Z,19.23
2022-12-12T23:26:47.217Z,16.45
2022-12-12T23:29:18.025Z,18.02
2022-12-12T23:31:48.715Z,17.25
2022-12-12T23:34:23.402Z,20.13
2022-12-12T23:36:54.882Z,20.60
2022-12-12T23:39:23.332Z,17.98
2022-12-12T23:41:52.016Z,17.75
2022-12-12T23:44:21.731Z,20.13
2022-12-12T23:46:49.806Z,20.30
2022-12-12T23:49:25.919Z,15.80
2022-12-12T23:52:13.476Z,13.95
2022-12-12T23:54:40.826Z,12.95
2022-12-12T23:57:08.282Z,11.77
2022-12-12T23:59:36.394Z,10.98
